createdAt,value
2023-02-23T00:01:42.230Z,5.90
2023-02-23T00:04:10.600Z,6.53
2023-02-23T00:09:12.281Z,6.30
2023-02-23T00:11:41.920Z,5.57
2023-02-23T00:14:10.100Z,6.10
2023-02-23T00:16:38.138Z,4.80
2023-02-23T00:19:08.307Z,6.27
2023-02-23T00:21:36.612Z,5.90
2023-02-23T00:24:08.492Z,5.43
2023-02-23T00:26:38.511Z,5.50
2023-02-23T00:29:09.534Z,5.67
2023-02-23T00:31:38.842Z,5.87
2023-02-23T00:34:07.754Z,6.13
2023-02-23T00:36:55.644Z,6.37
2023-02-23T00:39:26.758Z,5.03
2023-02-23T00:41:55.922Z,5.40
2023-02-23T00:44:26.139Z,5.40
2023-02-23T00:46:54.293Z,5.13
2023-02-23T00:49:23.508Z,5.43
2023-02-23T00:51:52.219Z,5.13
2023-02-23T00:54:22.123Z,5.60
2023-02-23T00:56:50.998Z,5.50
2023-02-23T00:59:20.290Z,6.00
2023-02-23T01:01:50.179Z,5.47
2023-02-23T01:04:18.183Z,5.37
2023-02-23T01:06:46.477Z,5.77
2023-02-23T01:09:22.075Z,4.93
2023-02-23T01:11:50.209Z,6.47
2023-02-23T01:14:18.197Z,5.73
2023-02-23T01:16:46.270Z,5.90
2023-02-23T01:19:16.016Z,5.73
2023-02-23T01:21:44.552Z,5.57
2023-02-23T01:24:13.354Z,6.17
2023-02-23T01:26:44.446Z,6.13
2023-02-23T01:29:15.664Z,6.13
2023-02-23T01:31:47.065Z,6.50
2023-02-23T01:34:16.891Z,5.00
2023-02-23T01:36:45.939Z,5.57
2023-02-23T01:39:15.896Z,5.20
2023-02-23T01:41:44.405Z,5.67
2023-02-23T01:44:45.628Z,5.83
2023-02-23T01:47:15.415Z,6.03
2023-02-23T01:49:45.089Z,6.47
2023-02-23T01:52:15.806Z,6.07
2023-02-23T01:54:50.607Z,5.87
2023-02-23T01:57:21.343Z,6.40
2023-02-23T01:59:51.178Z,6.40
2023-02-23T02:02:21.506Z,6.10
2023-02-23T02:04:52.374Z,6.13
2023-02-23T02:07:25.034Z,6.40
2023-02-23T02:10:13.512Z,6.47
2023-02-23T02:12:42.687Z,6.37
2023-02-23T02:15:17.615Z,6.00
2023-02-23T02:17:54.288Z,6.53
2023-02-23T02:20:43.006Z,6.53
2023-02-23T02:23:45.027Z,6.53
2023-02-23T02:26:22.345Z,6.50
2023-02-23T02:29:23.071Z,6.63
2023-02-23T02:32:13.958Z,6.40
2023-02-23T02:35:13.433Z,6.20
2023-02-23T02:37:56.917Z,5.93
2023-02-23T02:40:30.862Z,6.43
2023-02-23T02:43:09.096Z,6.53
2023-02-23T02:45:44.106Z,6.47
2023-02-23T02:48:18.470Z,6.67
2023-02-23T02:50:51.332Z,6.20
2023-02-23T02:53:29.720Z,6.73
2023-02-23T02:56:05.495Z,6.77
2023-02-23T02:58:34.152Z,6.37
2023-02-23T03:01:26.003Z,7.33
2023-02-23T03:04:11.687Z,6.63
2023-02-23T03:07:04.775Z,6.13
2023-02-23T03:10:00.264Z,6.57
2023-02-23T03:12:56.917Z,6.90
2023-02-23T03:15:58.003Z,6.93
2023-02-23T03:19:00.260Z,6.67
2023-02-23T03:21:52.671Z,6.47
2023-02-23T03:24:49.163Z,6.53
2023-02-23T03:27:41.859Z,6.13
2023-02-23T03:30:33.842Z,6.23
2023-02-23T03:33:26.696Z,6.93
2023-02-23T03:36:16.996Z,6.60
2023-02-23T03:39:07.528Z,7.00
2023-02-23T03:41:56.091Z,6.20
2023-02-23T03:44:49.443Z,6.47
2023-02-23T03:47:38.471Z,7.03
2023-02-23T03:50:29.963Z,7.80
2023-02-23T03:53:19.703Z,7.43
2023-02-23T03:56:10.560Z,7.10
2023-02-23T03:58:58.973Z,7.47
2023-02-23T04:01:47.617Z,7.47
2023-02-23T04:04:33.208Z,7.50
2023-02-23T04:07:20.818Z,7.50
2023-02-23T04:10:07.212Z,6.97
2023-02-23T04:12:58.547Z,6.53
2023-02-23T04:15:30.256Z,8.27
2023-02-23T04:18:00.527Z,13.63
2023-02-23T04:20:29.038Z,14.70
2023-02-23T04:22:57.186Z,16.80
2023-02-23T04:25:25.230Z,22.33
2023-02-23T04:27:53.397Z,19.77
2023-02-23T04:30:25.328Z,20.13
2023-02-23T04:32:53.620Z,17.73
2023-02-23T04:35:23.736Z,16.03
2023-02-23T04:37:51.835Z,14.27
2023-02-23T04:40:20.321Z,13.80
2023-02-23T04:42:48.690Z,11.73
2023-02-23T04:45:16.830Z,10.43
2023-02-23T04:47:44.916Z,8.60
2023-02-23T04:50:13.749Z,7.90
2023-02-23T04:52:43.632Z,7.87
2023-02-23T04:55:18.793Z,7.23
2023-02-23T04:57:48.045Z,6.57
2023-02-23T05:00:17.042Z,7.80
2023-02-23T05:02:45.495Z,6.80
2023-02-23T05:05:13.598Z,6.77
2023-02-23T05:07:42.994Z,6.93
2023-02-23T05:10:12.335Z,6.47
2023-02-23T05:12:40.330Z,5.83
2023-02-23T05:15:11.134Z,6.07
2023-02-23T05:17:41.219Z,6.40
2023-02-23T05:20:11.306Z,6.00
2023-02-23T05:22:39.242Z,6.30
2023-02-23T05:25:10.421Z,6.33
2023-02-23T05:27:38.870Z,6.17
2023-02-23T05:30:10.030Z,6.20
2023-02-23T05:32:38.059Z,6.73
2023-02-23T05:35:07.101Z,6.37
2023-02-23T05:37:35.069Z,6.57
2023-02-23T05:40:03.183Z,6.30
2023-02-23T05:42:32.784Z,6.47
2023-02-23T05:45:00.911Z,6.57
2023-02-23T05:47:28.930Z,6.47
2023-02-23T05:49:56.897Z,6.10
2023-02-23T05:52:25.035Z,6.40
2023-02-23T05:54:53.136Z,5.60
2023-02-23T05:57:21.230Z,6.20
2023-02-23T05:59:50.625Z,7.03
2023-02-23T06:02:18.646Z,6.77
2023-02-23T06:04:47.047Z,7.17
2023-02-23T06:07:15.935Z,6.70
2023-02-23T06:09:44.666Z,7.03
2023-02-23T06:12:12.938Z,6.20
2023-02-23T06:14:40.960Z,7.17
2023-02-23T06:17:10.442Z,7.20
2023-02-23T06:19:38.497Z,6.57
2023-02-23T06:22:06.516Z,7.57
2023-02-23T06:24:35.192Z,6.73
2023-02-23T06:27:03.279Z,7.37
2023-02-23T06:29:31.242Z,7.80
2023-02-23T06:32:01.124Z,7.20
2023-02-23T06:34:31.078Z,6.77
2023-02-23T06:36:59.091Z,6.90
2023-02-23T06:39:27.128Z,7.17
2023-02-23T06:41:55.372Z,6.83
2023-02-23T06:44:23.544Z,7.13
2023-02-23T06:46:51.512Z,7.00
2023-02-23T06:49:19.577Z,6.70
2023-02-23T06:51:48.971Z,7.13
2023-02-23T06:54:17.740Z,7.43
2023-02-23T06:56:46.508Z,7.07
2023-02-23T06:59:14.778Z,8.07
2023-02-23T07:01:45.028Z,8.03
2023-02-23T07:04:16.305Z,8.53
2023-02-23T07:06:44.796Z,8.63
2023-02-23T07:09:15.525Z,8.50
2023-02-23T07:11:44.786Z,8.73
2023-02-23T07:14:21.432Z,8.67
2023-02-23T07:16:54.307Z,7.57
2023-02-23T07:19:23.411Z,7.93
2023-02-23T07:21:51.600Z,7.17
2023-02-23T07:24:21.996Z,8.10
2023-02-23T07:26:50.326Z,8.27
2023-02-23T07:29:18.363Z,8.10
2023-02-23T07:31:46.737Z,7.47
2023-02-23T07:34:14.905Z,7.67
2023-02-23T07:36:42.894Z,7.97
2023-02-23T07:39:10.906Z,7.30
2023-02-23T07:41:40.366Z,8.30
2023-02-23T07:44:08.559Z,8.23
2023-02-23T07:46:36.618Z,8.27
2023-02-23T07:49:04.722Z,8.57
2023-02-23T07:51:32.800Z,8.40
2023-02-23T07:54:04.742Z,7.70
2023-02-23T07:56:32.932Z,7.90
2023-02-23T07:59:02.328Z,7.53
2023-02-23T08:01:31.060Z,7.53
2023-02-23T08:03:59.435Z,7.90
2023-02-23T08:06:27.532Z,8.13
2023-02-23T08:08:55.533Z,10.30
2023-02-23T08:11:23.529Z,9.20
2023-02-23T08:13:51.523Z,8.60
2023-02-23T08:16:20.971Z,15.53
2023-02-23T08:18:49.034Z,14.20
2023-02-23T08:21:17.465Z,8.27
2023-02-23T08:23:45.800Z,8.97
2023-02-23T08:26:13.835Z,8.93
2023-02-23T08:28:45.382Z,9.17
2023-02-23T08:31:14.250Z,8.90
2023-02-23T08:33:44.011Z,7.97
2023-02-23T08:36:12.048Z,6.83
2023-02-23T08:38:40.042Z,9.37
2023-02-23T08:41:08.054Z,9.53
2023-02-23T08:43:36.347Z,8.70
2023-02-23T08:46:04.684Z,9.00
2023-02-23T08:48:32.773Z,8.20
2023-02-23T08:51:02.295Z,9.67
2023-02-23T08:53:30.858Z,8.00
2023-02-23T08:55:59.988Z,8.33
2023-02-23T08:58:28.944Z,8.80
2023-02-23T09:00:57.203Z,8.40
2023-02-23T09:03:26.387Z,10.00
2023-02-23T09:05:54.732Z,9.80
2023-02-23T09:08:24.688Z,10.00
2023-02-23T09:10:53.725Z,8.67
2023-02-23T09:13:21.925Z,8.53
2023-02-23T09:15:49.946Z,10.13
2023-02-23T09:18:18.444Z,8.90
2023-02-23T09:20:46.856Z,10.27
2023-02-23T09:23:14.879Z,8.43
2023-02-23T09:25:45.429Z,9.90
2023-02-23T09:28:14.772Z,8.00
2023-02-23T09:30:43.827Z,7.63
2023-02-23T09:33:12.791Z,8.30
2023-02-23T09:35:41.851Z,8.13
2023-02-23T09:38:10.247Z,8.47
2023-02-23T09:40:47.553Z,9.63
2023-02-23T09:43:21.149Z,8.87
2023-02-23T09:45:52.814Z,8.73
2023-02-23T09:48:24.300Z,8.67
2023-02-23T09:50:54.337Z,8.63
2023-02-23T09:53:37.024Z,7.77
2023-02-23T09:56:13.473Z,9.10
2023-02-23T09:58:42.213Z,9.40
2023-02-23T10:01:30.012Z,10.10
2023-02-23T10:04:03.382Z,9.00
2023-02-23T10:06:31.929Z,8.43
2023-02-23T10:09:11.785Z,9.13
2023-02-23T10:11:47.244Z,9.30
2023-02-23T10:14:29.705Z,8.53
2023-02-23T10:17:10.882Z,8.97
2023-02-23T10:19:45.497Z,10.03
2023-02-23T10:22:15.798Z,10.30
2023-02-23T10:24:46.790Z,9.90
2023-02-23T10:27:19.037Z,9.33
2023-02-23T10:29:51.596Z,9.60
2023-02-23T10:32:23.861Z,9.50
2023-02-23T10:34:56.649Z,10.67
2023-02-23T10:37:26.181Z,10.93
2023-02-23T10:39:54.953Z,10.03
2023-02-23T10:42:28.941Z,10.37
2023-02-23T10:44:58.036Z,9.60
2023-02-23T10:47:28.716Z,10.83
2023-02-23T10:49:58.943Z,11.33
2023-02-23T10:52:32.848Z,10.10
2023-02-23T10:55:04.233Z,10.53
2023-02-23T10:57:39.801Z,10.50
2023-02-23T11:00:30.653Z,10.33
2023-02-23T11:02:59.999Z,11.07
2023-02-23T11:05:45.472Z,10.57
2023-02-23T11:08:22.347Z,9.53
2023-02-23T11:11:08.463Z,12.07
2023-02-23T11:13:42.644Z,11.63
2023-02-23T11:16:14.193Z,10.37
2023-02-23T11:18:44.421Z,11.20
2023-02-23T11:21:25.473Z,11.30
2023-02-23T11:23:55.585Z,10.17
2023-02-23T11:26:32.417Z,11.17
2023-02-23T11:29:11.098Z,10.83
2023-02-23T11:31:40.749Z,10.63
2023-02-23T11:34:09.211Z,11.30
2023-02-23T11:36:39.061Z,11.47
2023-02-23T11:39:22.314Z,11.67
2023-02-23T11:42:16.242Z,11.63
2023-02-23T11:44:52.205Z,10.77
2023-02-23T11:47:23.960Z,11.10
2023-02-23T11:49:52.624Z,11.47
2023-02-23T11:52:23.789Z,11.23
2023-02-23T11:54:56.262Z,11.13
2023-02-23T11:57:27.711Z,11.23
2023-02-23T11:59:58.064Z,11.67
2023-02-23T12:02:28.023Z,10.57
2023-02-23T12:05:07.361Z,10.13
2023-02-23T12:07:42.551Z,10.90
2023-02-23T12:10:23.099Z,11.50
2023-02-23T12:12:59.254Z,11.97
2023-02-23T12:15:37.264Z,10.80
2023-02-23T12:18:12.807Z,11.67
2023-02-23T12:20:43.422Z,11.37
2023-02-23T12:23:16.224Z,12.40
2023-02-23T12:25:49.955Z,10.87
2023-02-23T12:28:27.371Z,11.17
2023-02-23T12:31:01.328Z,11.03
2023-02-23T12:33:35.610Z,11.53
2023-02-23T12:36:07.390Z,12.07
2023-02-23T12:38:48.784Z,11.40
2023-02-23T12:41:27.932Z,12.13
2023-02-23T12:44:01.613Z,11.43
2023-02-23T12:46:36.429Z,10.23
2023-02-23T12:49:14.249Z,11.33
2023-02-23T12:51:47.986Z,10.97
2023-02-23T12:54:17.757Z,11.63
2023-02-23T12:56:55.909Z,12.73
2023-02-23T12:59:47.782Z,12.37
2023-02-23T13:02:24.176Z,10.53
2023-02-23T13:05:18.801Z,9.93
2023-02-23T13:08:01.907Z,11.17
2023-02-23T13:10:47.301Z,12.27
2023-02-23T13:13:26.908Z,10.73
2023-02-23T13:16:01.763Z,11.87
2023-02-23T13:18:36.845Z,12.90
2023-02-23T13:21:12.834Z,11.90
2023-02-23T13:23:55.873Z,11.30
2023-02-23T13:26:34.407Z,10.90
2023-02-23T13:29:07.242Z,11.70
2023-02-23T13:31:37.897Z,12.40
2023-02-23T13:34:12.142Z,12.30
2023-02-23T13:36:42.176Z,9.47
2023-02-23T13:39:37.179Z,11.30
2023-02-23T13:42:33.758Z,11.93
2023-02-23T13:45:17.942Z,12.70
2023-02-23T13:47:50.780Z,14.13
2023-02-23T13:50:27.079Z,10.43
2023-02-23T13:52:58.508Z,12.70
2023-02-23T13:55:53.505Z,14.30
2023-02-23T13:58:29.845Z,13.83
2023-02-23T14:01:11.778Z,17.87
2023-02-23T14:03:48.095Z,14.30
2023-02-23T14:06:20.744Z,18.17
2023-02-23T14:08:55.438Z,13.53
2023-02-23T14:11:44.110Z,16.30
2023-02-23T14:14:17.103Z,16.30
2023-02-23T14:16:47.830Z,19.87
2023-02-23T14:19:32.851Z,14.67
2023-02-23T14:22:05.556Z,12.10
2023-02-23T14:24:33.683Z,13.73
2023-02-23T14:27:41.537Z,14.80
2023-02-23T14:30:27.567Z,15.63
2023-02-23T14:32:55.743Z,13.33
2023-02-23T14:35:56.086Z,15.50
2023-02-23T14:38:47.009Z,13.93
2023-02-23T14:41:15.796Z,15.80
2023-02-23T14:43:46.505Z,13.83
2023-02-23T14:46:20.410Z,15.03
2023-02-23T14:49:00.146Z,72.10
2023-02-23T14:51:39.916Z,33.87
2023-02-23T14:54:15.722Z,63.47
2023-02-23T14:56:51.179Z,66.03
2023-02-23T14:59:21.882Z,18.00
2023-02-23T15:01:51.146Z,15.90
2023-02-23T15:04:22.536Z,23.80
2023-02-23T15:06:53.863Z,22.67
2023-02-23T15:09:32.129Z,16.50
2023-02-23T15:12:04.347Z,16.77
2023-02-23T15:14:37.331Z,17.97
2023-02-23T15:17:05.595Z,18.83
2023-02-23T15:19:37.022Z,14.10
2023-02-23T15:22:06.744Z,13.07
2023-02-23T15:24:44.287Z,12.63
2023-02-23T15:27:18.840Z,15.97
2023-02-23T15:29:47.060Z,17.60
2023-02-23T15:32:20.679Z,16.73
2023-02-23T15:34:49.367Z,16.37
2023-02-23T15:37:23.733Z,19.30
2023-02-23T15:39:57.756Z,17.67
2023-02-23T15:42:29.454Z,19.87
2023-02-23T15:45:00.978Z,18.40
2023-02-23T15:47:34.767Z,21.57
2023-02-23T15:50:08.673Z,20.70
2023-02-23T15:52:45.378Z,21.70
2023-02-23T15:55:21.823Z,23.93
2023-02-23T15:57:55.301Z,27.10
2023-02-23T16:00:32.674Z,21.47
2023-02-23T16:03:02.810Z,25.87
2023-02-23T16:05:41.803Z,19.13
2023-02-23T16:08:23.095Z,17.47
2023-02-23T16:10:57.557Z,20.10
2023-02-23T16:13:27.314Z,15.87
2023-02-23T16:15:56.341Z,18.03
2023-02-23T16:18:35.937Z,23.20
2023-02-23T16:21:06.145Z,23.10
2023-02-23T16:23:38.147Z,25.77
2023-02-23T16:26:12.427Z,22.50
2023-02-23T16:28:45.157Z,25.80
2023-02-23T16:31:16.021Z,27.57
2023-02-23T16:33:48.655Z,26.63
2023-02-23T16:36:22.119Z,27.23
2023-02-23T16:38:59.179Z,23.73
2023-02-23T16:41:31.079Z,22.43
2023-02-23T16:44:01.222Z,22.43
2023-02-23T16:46:31.684Z,22.63
2023-02-23T16:49:10.120Z,23.33
2023-02-23T16:51:38.595Z,25.50
2023-02-23T16:54:08.436Z,23.27
2023-02-23T16:56:40.125Z,24.90
2023-02-23T16:59:09.615Z,23.37
2023-02-23T17:01:38.917Z,26.10
2023-02-23T17:04:15.320Z,22.17
2023-02-23T17:06:43.877Z,22.60
2023-02-23T17:09:12.739Z,21.90
2023-02-23T17:11:43.961Z,25.43
2023-02-23T17:14:20.529Z,35.87
2023-02-23T17:16:48.646Z,50.47
2023-02-23T17:19:18.678Z,97.53
2023-02-23T17:21:49.097Z,75.47
2023-02-23T17:24:17.420Z,49.47
2023-02-23T17:26:46.839Z,41.93
2023-02-23T17:29:14.824Z,50.00
2023-02-23T17:31:43.491Z,59.43
2023-02-23T17:34:11.772Z,60.07
2023-02-23T17:36:40.068Z,94.20
2023-02-23T17:39:09.641Z,73.33
2023-02-23T17:41:37.636Z,64.00
2023-02-23T17:44:07.224Z,74.30
2023-02-23T17:46:36.069Z,102.07
2023-02-23T17:49:04.556Z,82.10
2023-02-23T17:51:32.552Z,87.00
2023-02-23T17:54:00.538Z,66.30
2023-02-23T17:56:31.306Z,120.10
2023-02-23T17:58:59.356Z,73.43
2023-02-23T18:01:28.828Z,48.20
2023-02-23T18:03:58.588Z,47.37
2023-02-23T18:06:26.652Z,122.43
2023-02-23T18:08:54.638Z,109.13
2023-02-23T18:11:23.281Z,108.53
2023-02-23T18:13:51.710Z,67.50
2023-02-23T18:16:20.438Z,48.90
2023-02-23T18:18:50.640Z,54.00
2023-02-23T18:21:21.588Z,63.67
2023-02-23T18:23:50.604Z,47.03
2023-02-23T18:26:20.440Z,49.43
2023-02-23T18:28:48.572Z,67.10
2023-02-23T18:31:19.578Z,86.33
2023-02-23T18:33:49.981Z,65.50
2023-02-23T18:36:19.794Z,79.70
2023-02-23T18:38:47.850Z,69.57
2023-02-23T18:41:16.145Z,75.97
2023-02-23T18:43:44.153Z,71.70
2023-02-23T18:46:14.217Z,73.93
2023-02-23T18:48:42.662Z,58.73
2023-02-23T18:51:14.308Z,74.97
2023-02-23T18:53:44.784Z,79.87
2023-02-23T18:56:16.013Z,68.70
2023-02-23T18:58:46.223Z,49.83
2023-02-23T19:01:18.194Z,68.40
2023-02-23T19:03:46.653Z,62.03
2023-02-23T19:06:16.984Z,70.87
2023-02-23T19:08:45.955Z,91.50
2023-02-23T19:11:14.037Z,46.83
2023-02-23T19:13:42.058Z,33.60
2023-02-23T19:16:10.142Z,33.33
2023-02-23T19:18:38.185Z,64.60
2023-02-23T19:21:08.426Z,59.53
2023-02-23T19:23:38.685Z,44.23
2023-02-23T19:26:06.981Z,47.73
2023-02-23T19:28:35.168Z,64.53
2023-02-23T19:31:04.496Z,57.73
2023-02-23T19:33:32.737Z,77.17
2023-02-23T19:36:01.479Z,42.93
2023-02-23T19:38:30.187Z,41.53
2023-02-23T19:40:59.718Z,38.37
2023-02-23T19:43:27.719Z,49.63
2023-02-23T19:45:55.900Z,35.77
2023-02-23T19:48:25.400Z,38.23
2023-02-23T19:50:54.797Z,47.27
2023-02-23T19:53:22.889Z,36.30
2023-02-23T19:56:01.202Z,34.07
2023-02-23T19:58:29.229Z,45.57
2023-02-23T20:00:59.886Z,45.57
2023-02-23T20:03:28.607Z,42.07
2023-02-23T20:05:57.475Z,52.57
2023-02-23T20:08:26.266Z,46.60
2023-02-23T20:10:54.444Z,39.17
2023-02-23T20:13:24.257Z,35.03
2023-02-23T20:16:00.516Z,35.83
2023-02-23T20:18:28.755Z,37.70
2023-02-23T20:20:56.818Z,32.67
2023-02-23T20:23:24.842Z,34.53
2023-02-23T20:25:52.817Z,32.47
2023-02-23T20:28:20.940Z,31.17
2023-02-23T20:30:50.821Z,30.73
2023-02-23T20:33:18.824Z,30.37
2023-02-23T20:35:47.213Z,29.43
2023-02-23T20:38:15.406Z,29.50
2023-02-23T20:40:44.745Z,27.57
2023-02-23T20:43:13.158Z,31.63
2023-02-23T20:45:41.693Z,29.63
2023-02-23T20:48:11.325Z,28.93
2023-02-23T20:50:39.611Z,30.23
2023-02-23T20:53:08.852Z,27.77
2023-02-23T20:55:37.000Z,29.53
2023-02-23T20:58:07.078Z,28.60
2023-02-23T21:00:35.487Z,27.83
2023-02-23T21:03:05.175Z,27.87
2023-02-23T21:05:40.491Z,26.73
2023-02-23T21:08:10.195Z,27.00
2023-02-23T21:10:40.335Z,26.93
2023-02-23T21:13:10.387Z,26.37
2023-02-23T21:15:39.375Z,26.40
2023-02-23T21:18:08.189Z,24.53
2023-02-23T21:20:39.285Z,26.00
2023-02-23T21:23:07.458Z,26.90
2023-02-23T21:25:35.526Z,27.60
2023-02-23T21:28:03.924Z,27.63
2023-02-23T21:30:31.944Z,27.23
2023-02-23T21:33:00.232Z,28.37
2023-02-23T21:35:28.562Z,28.47
2023-02-23T21:37:57.956Z,27.07
2023-02-23T21:40:26.031Z,28.83
2023-02-23T21:42:54.293Z,28.97
2023-02-23T21:45:22.380Z,28.87
2023-02-23T21:47:50.671Z,27.37
2023-02-23T21:50:20.111Z,24.83
2023-02-23T21:52:54.103Z,28.67
2023-02-23T21:55:23.658Z,27.80
2023-02-23T21:57:52.766Z,27.93
2023-02-23T22:00:22.966Z,27.67
2023-02-23T22:02:52.299Z,28.30
2023-02-23T22:05:21.577Z,28.50
2023-02-23T22:07:50.779Z,29.33
2023-02-23T22:10:19.751Z,28.47
2023-02-23T22:12:50.629Z,28.93
2023-02-23T22:15:18.846Z,30.47
2023-02-23T22:17:47.002Z,29.83
2023-02-23T22:20:15.421Z,29.63
2023-02-23T22:22:43.458Z,30.50
2023-02-23T22:25:11.771Z,30.20
2023-02-23T22:27:41.628Z,31.60
2023-02-23T22:30:13.953Z,31.27
2023-02-23T22:32:42.880Z,30.93
2023-02-23T22:35:12.389Z,31.57
2023-02-23T22:37:41.067Z,31.60
2023-02-23T22:40:13.674Z,31.90
2023-02-23T22:42:43.385Z,30.57
2023-02-23T22:45:13.459Z,29.50
2023-02-23T22:47:41.408Z,30.50
2023-02-23T22:50:12.133Z,29.10
2023-02-23T22:52:40.903Z,29.03
2023-02-23T22:55:09.776Z,30.00
2023-02-23T22:57:38.072Z,30.77
2023-02-23T23:00:10.355Z,31.20
2023-02-23T23:02:39.741Z,29.93
2023-02-23T23:05:09.235Z,31.13
2023-02-23T23:07:37.383Z,30.20
2023-02-23T23:10:09.290Z,29.77
2023-02-23T23:12:38.084Z,31.70
2023-02-23T23:15:14.665Z,31.77
2023-02-23T23:17:48.175Z,32.43
2023-02-23T23:20:17.711Z,32.83
2023-02-23T23:22:45.754Z,31.53
2023-02-23T23:25:15.664Z,29.80
2023-02-23T23:27:45.807Z,30.33
2023-02-23T23:30:15.468Z,29.97
2023-02-23T23:32:45.655Z,29.03
2023-02-23T23:35:15.309Z,30.67
2023-02-23T23:37:43.361Z,29.87
2023-02-23T23:40:15.109Z,28.10
2023-02-23T23:42:46.182Z,29.90
2023-02-23T23:45:16.335Z,29.17
2023-02-23T23:47:46.097Z,26.97
2023-02-23T23:50:16.706Z,28.20
2023-02-23T23:52:46.053Z,29.33
2023-02-23T23:55:15.723Z,31.00
2023-02-23T23:57:43.841Z,29.10
